Time;durP1;ratioP1;P1;durP2;ratioP2;P2;SDS_P1;SDS_P2;PMS_P1;PMS_P2;Temp;Humidity;BMP_temperature;BMP_pressure;BME280_temperature;BME280_humidity;BME280_pressure;Samples;Min_cycle;Max_cycle;Signal;HPM_P1;HPM_P2
2022/09/02 00:01:01;;;;;;;6.73;4.70;;;16.00;99.90;;;;;;4976900;28;20446;-87
2022/09/02 00:03:33;;;;;;;7.90;5.17;;;15.90;99.90;;;;;;4976744;28;20482;-88
2022/09/02 00:06:00;;;;;;;4.90;4.40;;;15.90;99.90;;;;;;4959922;28;20463;-87
2022/09/02 00:08:26;;;;;;;4.57;3.73;;;;;;;;;;4978835;28;20435;-88
2022/09/02 00:10:52;;;;;;;4.60;4.20;;;15.90;99.90;;;;;;4976956;28;20435;-88
2022/09/02 00:13:19;;;;;;;6.37;4.10;;;;;;;;;;4976557;28;20448;-89
2022/09/02 00:15:46;;;;;;;5.17;4.67;;;15.80;99.90;;;;;;4964932;28;20193;-87
2022/09/02 00:18:13;;;;;;;6.70;4.87;;;15.80;99.90;;;;;;4974834;28;20440;-88
2022/09/02 00:20:43;;;;;;;5.93;4.40;;;15.80;99.90;;;;;;4976572;28;21110;-88
2022/09/02 00:23:09;;;;;;;4.10;3.80;;;15.70;99.90;;;;;;4978483;28;20558;-88
2022/09/02 00:25:36;;;;;;;4.50;4.07;;;15.70;99.90;;;;;;4981784;28;20561;-87
2022/09/02 00:28:02;;;;;;;5.10;4.60;;;15.70;99.90;;;;;;4965213;28;20435;-87
2022/09/02 00:30:28;;;;;;;5.63;4.70;;;15.70;99.90;;;;;;4967500;28;20470;-89
2022/09/02 00:32:54;;;;;;;7.03;4.47;;;15.60;99.90;;;;;;4982883;28;20841;-87
2022/09/02 00:35:20;;;;;;;5.73;5.23;;;;;;;;;;4959866;28;20198;-88
2022/09/02 00:37:46;;;;;;;7.13;4.80;;;;;;;;;;4975286;28;20533;-88
2022/09/02 00:40:12;;;;;;;5.73;4.20;;;15.40;99.90;;;;;;4979341;28;20437;-86
2022/09/02 00:42:38;;;;;;;5.80;4.20;;;15.30;99.90;;;;;;4974191;28;20522;-88
2022/09/02 00:45:08;;;;;;;14.47;4.63;;;16.40;99.90;;;;;;4962391;28;20441;-87
2022/09/02 00:47:37;;;;;;;4.80;4.40;;;;;;;;;;4964343;28;20540;-89
2022/09/02 00:50:07;;;;;;;5.97;4.50;;;15.00;99.90;;;;;;4980421;28;20438;-89
2022/09/02 00:52:40;;;;;;;6.00;4.67;;;15.00;99.90;;;;;;4962028;28;20467;-88
2022/09/02 00:55:16;;;;;;;6.13;4.37;;;15.00;99.90;;;;;;4963005;28;20450;-88
2022/09/02 00:57:55;;;;;;;5.23;4.70;;;14.80;99.90;;;;;;4956599;28;20450;-88
2022/09/02 01:00:29;;;;;;;5.07;4.57;;;14.80;99.90;;;;;;4975429;28;20438;-88
2022/09/02 01:03:02;;;;;;;4.80;4.40;;;16.50;99.90;;;;;;4964571;28;20621;-89
2022/09/02 01:05:33;;;;;;;6.85;4.20;;;14.50;99.90;;;;;;4963933;28;20179;-88
2022/09/02 01:07:59;;;;;;;4.70;4.10;;;14.40;99.90;;;;;;4972834;28;20191;-88
2022/09/02 01:10:33;;;;;;;5.10;4.60;;;14.30;99.90;;;;;;4967532;28;20432;-88
2022/09/02 01:13:12;;;;;;;5.65;4.88;;;14.30;99.90;;;;;;4956094;28;20489;-88
2022/09/02 01:15:49;;;;;;;5.13;4.63;;;14.30;99.90;;;;;;4978063;28;20225;-89
2022/09/02 01:18:19;;;;;;;6.13;4.47;;;14.30;99.90;;;;;;4960782;28;20509;-86
2022/09/02 01:20:45;;;;;;;5.40;4.90;;;14.10;99.90;;;;;;4972171;28;20463;-87
2022/09/02 01:23:12;;;;;;;4.37;4.00;;;14.10;99.90;;;;;;4952917;28;20583;-88
2022/09/02 01:25:38;;;;;;;5.87;4.80;;;14.10;99.90;;;;;;4976363;28;20431;-88
2022/09/02 01:28:08;;;;;;;7.93;5.53;;;16.20;99.90;;;;;;4976360;28;20438;-87
2022/09/02 01:30:36;;;;;;;8.07;4.70;;;14.00;99.90;;;;;;4971962;28;21680;-88
2022/09/02 01:33:02;;;;;;;5.35;4.47;;;;;;;;;;4957677;28;20234;-88
2022/09/02 01:35:29;;;;;;;5.07;4.55;;;13.90;99.90;;;;;;4974354;28;20193;-88
2022/09/02 01:37:56;;;;;;;4.80;4.25;;;13.70;99.90;;;;;;4953308;28;21178;-88
2022/09/02 01:40:24;;;;;;;4.90;4.50;;;13.50;99.90;;;;;;4955825;28;20190;-87
2022/09/02 01:42:55;;;;;;;6.83;4.43;;;13.70;99.90;;;;;;4971388;28;20316;-87
2022/09/02 01:45:21;;;;;;;6.90;4.90;;;13.60;99.90;;;;;;4975420;28;20427;-88
2022/09/02 01:47:47;;;;;;;6.80;4.77;;;13.50;99.90;;;;;;4973029;28;20931;-87
2022/09/02 01:50:13;;;;;;;5.00;4.50;;;13.50;99.90;;;;;;4979587;28;20430;-88
2022/09/02 01:52:38;;;;;;;5.93;4.53;;;13.50;99.90;;;;;;4961833;28;20202;-86
2022/09/02 01:55:05;;;;;;;6.10;4.40;;;13.50;99.90;;;;;;4963531;28;20195;-85
2022/09/02 01:57:30;;;;;;;5.32;4.53;;;13.50;99.90;;;;;;4977008;28;20270;-85
2022/09/02 01:59:56;;;;;;;9.40;5.20;;;13.50;99.90;;;;;;4958003;28;20646;-85
2022/09/02 02:02:22;;;;;;;7.53;4.50;;;13.50;99.90;;;;;;4978282;28;20214;-86
2022/09/02 02:04:48;;;;;;;4.82;4.30;;;;;;;;;;4960422;28;20289;-87
2022/09/02 02:07:17;;;;;;;8.07;4.65;;;13.50;99.90;;;;;;4961684;28;20211;-88
2022/09/02 02:09:43;;;;;;;4.80;4.25;;;13.50;99.90;;;;;;4965566;28;20183;-88
2022/09/02 02:12:09;;;;;;;4.77;4.00;;;13.70;99.90;;;;;;4975101;28;20721;-87
2022/09/02 02:14:36;;;;;;;4.07;3.67;;;13.80;99.90;;;;;;4973781;28;20183;-88
2022/09/02 02:17:03;;;;;;;4.20;3.72;;;14.00;99.90;;;;;;4953316;28;20701;-87
2022/09/02 02:19:29;;;;;;;4.03;3.63;;;;;;;;;;4977475;28;20817;-87
2022/09/02 02:21:55;;;;;;;6.97;3.63;;;14.00;99.90;;;;;;4974142;28;20211;-87
2022/09/02 02:24:21;;;;;;;7.03;3.70;;;14.10;99.90;;;;;;4977001;28;20457;-87
2022/09/02 02:26:46;;;;;;;4.03;3.63;;;14.10;99.90;;;;;;4961454;28;20239;-87
2022/09/02 02:29:13;;;;;;;4.03;3.63;;;14.10;99.90;;;;;;4977446;28;20449;-87
2022/09/02 02:31:39;;;;;;;5.40;3.75;;;14.10;99.90;;;;;;4956840;28;20206;-87
2022/09/02 02:34:05;;;;;;;3.92;3.53;;;;;;;;;;4971253;28;20274;-87
2022/09/02 02:36:31;;;;;;;5.07;4.53;;;14.00;99.90;;;;;;4961855;28;20604;-88
2022/09/02 02:38:57;;;;;;;4.20;3.80;;;14.00;99.90;;;;;;4960196;28;20438;-88
2022/09/02 02:41:22;;;;;;;4.60;4.03;;;14.00;99.90;;;;;;4978480;28;20532;-87
2022/09/02 02:43:48;;;;;;;4.30;3.70;;;14.00;99.90;;;;;;4965399;28;20457;-88
2022/09/02 02:46:14;;;;;;;3.63;3.30;;;14.00;99.90;;;;;;4985801;28;20810;-88
2022/09/02 02:48:41;;;;;;;5.85;3.88;;;14.00;99.90;;;;;;4968279;28;20260;-87
2022/09/02 02:51:08;;;;;;;5.25;4.00;;;13.90;99.90;;;;;;4966710;28;20261;-87
2022/09/02 02:53:35;;;;;;;5.82;4.82;;;13.90;99.90;;;;;;4980174;28;20218;-87
2022/09/02 02:56:00;;;;;;;3.97;3.63;;;13.80;99.90;;;;;;4982309;28;20187;-86
2022/09/02 02:58:26;;;;;;;5.03;3.67;;;13.70;99.90;;;;;;4966652;28;20191;-87
2022/09/02 03:00:52;;;;;;;4.27;3.60;;;13.50;99.90;;;;;;4981023;28;20465;-88
2022/09/02 03:03:18;;;;;;;4.70;4.17;;;13.50;99.90;;;;;;4967092;28;20487;-87
2022/09/02 03:05:46;;;;;;;3.95;3.55;;;13.40;99.90;;;;;;4963802;28;20603;-87
2022/09/02 03:08:12;;;;;;;5.55;5.00;;;13.40;99.90;;;;;;4982501;28;20184;-88
2022/09/02 03:10:40;;;;;;;5.40;4.18;;;13.30;99.90;;;;;;4966693;28;22109;-88
2022/09/02 03:13:08;;;;;;;5.20;3.70;;;13.20;99.90;;;;;;4991507;28;20211;-87
2022/09/02 03:15:35;;;;;;;4.53;4.13;;;13.10;99.90;;;;;;4982562;28;20194;-88
2022/09/02 03:18:01;;;;;;;6.20;5.68;;;13.00;99.90;;;;;;4977249;28;20215;-88
2022/09/02 03:20:27;;;;;;;5.90;4.63;;;13.00;99.90;;;;;;4969680;28;20742;-88
2022/09/02 03:22:55;;;;;;;6.93;4.72;;;12.90;99.90;;;;;;4957895;28;20505;-87
2022/09/02 03:25:22;;;;;;;5.05;4.55;;;12.80;99.90;;;;;;4962981;28;20664;-88
2022/09/02 03:27:48;;;;;;;6.45;5.25;;;12.80;99.90;;;;;;4965378;28;20187;-88
2022/09/02 03:30:17;;;;;;;5.90;4.40;;;12.80;99.90;;;;;;4967326;28;20195;-87
2022/09/02 03:32:43;;;;;;;9.00;6.03;;;12.80;99.90;;;;;;4963049;28;20269;-87
2022/09/02 03:35:13;;;;;;;4.00;3.60;;;12.70;99.90;;;;;;4967132;28;20491;-88
2022/09/02 03:37:39;;;;;;;3.88;3.35;;;;;;;;;;4964712;28;20191;-85
2022/09/02 03:40:11;;;;;;;6.37;4.30;;;12.40;99.90;;;;;;4983632;28;20183;-85
2022/09/02 03:42:37;;;;;;;4.70;4.20;;;12.20;99.90;;;;;;4978933;28;20471;-88
2022/09/02 03:45:04;;;;;;;4.70;4.00;;;12.10;99.90;;;;;;4967478;28;20183;-88
2022/09/02 03:47:29;;;;;;;5.15;4.30;;;11.90;99.90;;;;;;4967687;28;20438;-87
2022/09/02 03:49:56;;;;;;;5.03;3.87;;;11.90;99.90;;;;;;4977420;28;20282;-86
2022/09/02 03:52:22;;;;;;;4.47;3.97;;;11.80;99.90;;;;;;4982017;28;20556;-88
2022/09/02 03:54:47;;;;;;;4.70;4.20;;;11.70;99.90;;;;;;4978986;28;20187;-87
2022/09/02 03:57:13;;;;;;;5.20;4.67;;;11.60;99.90;;;;;;4980726;28;20438;-88
2022/09/02 03:59:39;;;;;;;5.47;4.85;;;11.70;99.90;;;;;;4979607;28;20199;-87
2022/09/02 04:02:04;;;;;;;5.40;4.30;;;11.50;99.90;;;;;;4978691;28;20202;-86
2022/09/02 04:04:30;;;;;;;7.37;4.90;;;11.50;99.90;;;;;;4980386;28;20252;-87
2022/09/02 04:06:57;;;;;;;4.10;3.70;;;11.60;99.90;;;;;;4978876;28;20194;-86
2022/09/02 04:09:22;;;;;;;7.20;4.10;;;11.50;99.90;;;;;;4965788;28;20202;-87
2022/09/02 04:11:48;;;;;;;4.60;4.00;;;11.50;99.90;;;;;;4960829;28;20568;-88
2022/09/02 04:14:14;;;;;;;5.07;4.07;;;11.40;99.90;;;;;;4964884;28;20187;-87
2022/09/02 04:16:39;;;;;;;6.00;4.10;;;11.30;99.90;;;;;;4962133;28;20188;-87
2022/09/02 04:19:06;;;;;;;4.63;3.90;;;11.30;99.90;;;;;;4976184;28;20827;-87
2022/09/02 04:21:34;;;;;;;5.13;4.63;;;11.30;99.90;;;;;;4977211;28;20273;-87
2022/09/02 04:23:59;;;;;;;4.93;4.43;;;11.30;99.90;;;;;;4977548;28;20701;-87
2022/09/02 04:26:25;;;;;;;5.60;4.97;;;11.30;99.90;;;;;;4963601;28;20183;-87
2022/09/02 04:28:52;;;;;;;5.30;4.07;;;11.20;99.90;;;;;;4964516;28;20187;-88
2022/09/02 04:31:21;;;;;;;5.65;4.13;;;11.20;99.90;;;;;;4962984;28;20258;-88
2022/09/02 04:33:47;;;;;;;5.38;4.47;;;11.20;99.90;;;;;;4973706;28;20279;-87
2022/09/02 04:36:14;;;;;;;5.47;4.10;;;11.30;99.90;;;;;;4980911;28;20241;-87
2022/09/02 04:38:40;;;;;;;11.43;4.50;;;11.30;99.90;;;;;;4965907;28;20186;-88
2022/09/02 04:41:15;;;;;;;6.57;4.90;;;11.30;99.90;;;;;;4977371;28;20198;-88
2022/09/02 04:43:41;;;;;;;7.88;5.65;;;11.40;99.90;;;;;;4980584;28;20835;-88
2022/09/02 04:46:09;;;;;;;5.10;4.60;;;11.40;99.90;;;;;;4964514;28;20193;-88
2022/09/02 04:48:36;;;;;;;5.65;4.05;;;11.40;99.90;;;;;;4959106;28;20756;-88
2022/09/02 04:51:07;;;;;;;6.60;4.97;;;11.70;99.90;;;;;;4961850;28;20240;-88
2022/09/02 04:53:34;;;;;;;5.40;4.07;;;11.90;99.90;;;;;;4982307;28;20182;-88
2022/09/02 04:56:01;;;;;;;7.43;4.13;;;11.90;99.90;;;;;;4962237;28;20195;-88
2022/09/02 04:58:27;;;;;;;6.18;3.78;;;12.00;99.90;;;;;;4975370;28;20180;-88
2022/09/02 05:00:52;;;;;;;8.20;3.90;;;12.10;99.90;;;;;;4965929;28;20686;-88
2022/09/02 05:03:18;;;;;;;7.80;4.07;;;12.00;99.90;;;;;;4972823;28;20222;-87
2022/09/02 05:05:44;;;;;;;5.13;3.83;;;12.20;99.90;;;;;;4958289;28;20172;-87
2022/09/02 05:08:11;;;;;;;5.13;4.17;;;;;;;;;;4974547;28;20461;-88
2022/09/02 05:10:39;;;;;;;10.18;3.65;;;13.00;99.90;;;;;;4978061;28;20203;-88
2022/09/02 05:13:04;;;;;;;4.50;3.33;;;14.10;99.90;;;;;;4965211;28;20238;-88
2022/09/02 05:15:30;;;;;;;3.63;3.10;;;14.80;99.90;;;;;;4976778;28;20207;-88
2022/09/02 05:17:56;;;;;;;7.07;3.73;;;15.80;99.90;;;;;;4960531;28;20211;-88
2022/09/02 05:20:22;;;;;;;6.57;3.60;;;16.80;99.90;;;;;;4981233;28;20195;-88
2022/09/02 05:22:48;;;;;;;3.27;2.77;;;17.80;99.90;;;;;;4968292;28;20207;-88
2022/09/02 05:25:14;;;;;;;3.60;2.60;;;17.80;99.90;;;;;;4960174;28;20987;-88
2022/09/02 05:27:40;;;;;;;4.70;3.37;;;17.90;99.90;;;;;;4966340;28;20469;-88
2022/09/02 05:30:06;;;;;;;3.40;2.87;;;18.50;99.90;;;;;;4956995;28;20846;-88
2022/09/02 05:32:31;;;;;;;3.93;3.50;;;19.80;99.90;;;;;;4971960;28;20208;-89
2022/09/02 05:34:57;;;;;;;3.10;2.80;;;20.60;99.90;;;;;;4975175;28;20967;-88
2022/09/02 05:37:23;;;;;;;5.63;3.60;;;20.40;99.90;;;;;;4957175;28;20223;-88
2022/09/02 05:39:49;;;;;;;8.53;4.70;;;20.90;99.90;;;;;;4958811;28;22277;-90
2022/09/02 05:42:15;;;;;;;4.47;3.47;;;21.80;99.90;;;;;;4962485;28;20489;-88
2022/09/02 05:44:43;;;;;;;4.13;3.73;;;22.20;99.90;;;;;;4959664;28;20451;-88
2022/09/02 05:47:09;;;;;;;3.40;3.10;;;;;;;;;;4980932;28;21090;-88
2022/09/02 05:49:35;;;;;;;4.13;2.90;;;;;;;;;;4977268;28;20525;-88
2022/09/02 05:52:02;;;;;;;5.20;3.87;;;;;;;;;;4960848;28;20509;-88
2022/09/02 05:54:31;;;;;;;5.30;3.80;;;28.90;93.20;;;;;;4952415;28;20799;-89
2022/09/02 05:57:03;;;;;;;4.20;3.80;;;30.30;87.90;;;;;;4977285;28;20477;-86
2022/09/02 05:59:30;;;;;;;7.90;6.60;;;31.10;79.30;;;;;;4972691;28;20454;-85
2022/09/02 06:01:57;;;;;;;4.60;4.03;;;31.70;69.80;;;;;;4965780;28;20469;-88
2022/09/02 06:04:23;;;;;;;6.77;6.07;;;;;;;;;;4977351;28;20439;-89
2022/09/02 06:06:49;;;;;;;4.43;4.03;;;33.70;62.10;;;;;;4990542;28;20422;-88
2022/09/02 06:09:18;;;;;;;5.43;4.47;;;34.00;59.80;;;;;;4986276;28;20446;-88
2022/09/02 06:11:48;;;;;;;6.70;4.80;;;;;;;;;;4996754;28;20540;-88
2022/09/02 06:14:14;;;;;;;5.93;4.33;;;;;;;;;;4991220;28;20489;-89
2022/09/02 06:16:40;;;;;;;4.87;4.37;;;35.90;53.90;;;;;;4965953;28;20443;-89
2022/09/02 06:19:07;;;;;;;5.20;4.70;;;;;;;;;;4982282;28;20442;-88
2022/09/02 06:21:34;;;;;;;5.67;5.17;;;36.80;48.80;;;;;;4964080;28;20974;-88
2022/09/02 06:24:00;;;;;;;5.73;5.17;;;;;;;;;;4968235;28;20484;-88
2022/09/02 06:26:26;;;;;;;7.20;6.07;;;;;;;;;;4978899;28;20439;-88
2022/09/02 06:28:52;;;;;;;7.10;6.50;;;;;;;;;;4968309;28;20439;-87
2022/09/02 06:31:20;;;;;;;6.47;6.07;;;36.30;45.00;;;;;;4981028;28;20482;-88
2022/09/02 06:33:49;;;;;;;7.60;7.00;;;36.20;44.90;;;;;;4980434;28;20448;-87
2022/09/02 06:36:16;;;;;;;7.13;6.57;;;36.10;44.90;;;;;;4977633;28;20552;-88
2022/09/02 06:38:45;;;;;;;6.87;6.37;;;36.50;44.90;;;;;;4967539;28;20531;-88
2022/09/02 06:41:13;;;;;;;7.30;6.80;;;37.00;43.90;;;;;;4965822;28;21470;-89
2022/09/02 06:43:39;;;;;;;7.97;7.23;;;;;;;;;;4983234;28;21007;-88
2022/09/02 06:46:06;;;;;;;8.80;8.20;;;37.80;41.80;;;;;;4966008;28;20873;-88
2022/09/02 06:48:31;;;;;;;9.00;8.13;;;;;;;;;;4963564;28;20473;-88
2022/09/02 06:50:57;;;;;;;8.93;8.43;;;;;;;;;;4978247;28;21024;-88
2022/09/02 06:53:24;;;;;;;10.00;9.30;;;;;;;;;;4984127;28;20470;-89
2022/09/02 06:55:50;;;;;;;10.77;10.00;;;;;;;;;;4980917;28;20449;-88
2022/09/02 06:58:16;;;;;;;9.60;9.10;;;;;;;;;;4977565;28;21455;-88
2022/09/02 07:00:42;;;;;;;31.17;28.97;;;;;;;;;;4963774;28;20898;-88
2022/09/02 07:06:08;;;;;;;11.10;10.20;;;39.60;41.40;;;;;;4976111;28;20443;-88
2022/09/02 07:08:35;;;;;;;11.43;10.73;;;40.00;37.10;;;;;;4965268;28;20448;-88
2022/09/02 07:11:01;;;;;;;12.57;11.40;;;;;;;;;;4962848;28;21228;-88
2022/09/02 07:13:27;;;;;;;12.50;11.80;;;;;;;;;;4976251;28;20458;-88
2022/09/02 07:15:53;;;;;;;12.70;11.47;;;;;;;;;;4974194;28;21035;-88
2022/09/02 07:18:19;;;;;;;12.33;11.57;;;;;;;;;;4966478;28;21185;-88
2022/09/02 07:20:46;;;;;;;12.73;11.70;;;38.60;37.30;;;;;;4965977;28;20448;-88
2022/09/02 07:23:13;;;;;;;11.53;10.77;;;;;;;;;;4969348;28;21333;-87
2022/09/02 07:25:40;;;;;;;12.27;11.33;;;;;;;;;;4961240;28;20448;-87
2022/09/02 07:28:07;;;;;;;11.63;10.80;;;37.30;38.40;;;;;;4968841;28;21382;-88
2022/09/02 07:30:33;;;;;;;12.40;11.50;;;37.40;38.60;;;;;;4961577;28;20450;-88
2022/09/02 07:33:00;;;;;;;13.10;12.40;;;;;;;;;;4959859;28;20820;-88
2022/09/02 07:35:27;;;;;;;13.10;12.23;;;36.90;38.20;;;;;;4950829;28;20494;-88
2022/09/02 07:37:52;;;;;;;13.57;12.33;;;37.00;39.20;;;;;;4977873;28;20442;-88
2022/09/02 07:40:19;;;;;;;13.97;12.67;;;;;;;;;;4963117;28;21106;-88
2022/09/02 07:42:45;;;;;;;14.17;13.07;;;;;;;;;;4971155;28;20216;-87
2022/09/02 07:45:10;;;;;;;12.30;11.60;;;35.60;39.60;;;;;;4971493;28;20430;-88
2022/09/02 07:47:36;;;;;;;12.07;11.07;;;;;;;;;;4969150;28;20992;-87
2022/09/02 07:50:04;;;;;;;11.23;10.50;;;36.10;40.90;;;;;;4970380;28;20179;-88
2022/09/02 07:52:30;;;;;;;12.33;11.40;;;;;;;;;;4956427;28;20986;-88
2022/09/02 07:54:56;;;;;;;12.53;11.30;;;;;;;;;;4957951;28;20441;-88
2022/09/02 07:57:23;;;;;;;12.10;11.30;;;;;;;;;;4959922;28;21060;-87
2022/09/02 07:59:49;;;;;;;12.00;11.10;;;;;;;;;;4961441;28;20445;-87
2022/09/02 08:02:16;;;;;;;11.57;10.83;;;;;;;;;;4958648;28;20476;-87
2022/09/02 08:04:42;;;;;;;10.27;9.67;;;36.30;38.60;;;;;;4965658;28;20564;-87
2022/09/02 08:07:08;;;;;;;11.37;10.13;;;36.20;39.10;;;;;;4959029;28;20446;-87
2022/09/02 08:09:34;;;;;;;9.63;8.80;;;;;;;;;;4957288;28;20455;-87
2022/09/02 08:12:00;;;;;;;13.03;10.73;;;;;;;;;;4965479;28;20491;-87
2022/09/02 08:14:28;;;;;;;10.87;10.07;;;34.90;40.00;;;;;;4967020;28;20531;-87
2022/09/02 08:16:55;;;;;;;10.90;10.10;;;35.10;41.60;;;;;;4947546;28;20448;-87
2022/09/02 08:19:22;;;;;;;10.10;9.37;;;35.40;40.30;;;;;;4964442;28;20499;-88
2022/09/02 08:21:47;;;;;;;11.37;10.27;;;35.30;40.80;;;;;;4958613;28;20468;-87
2022/09/02 08:24:13;;;;;;;12.53;9.00;;;35.60;40.30;;;;;;4971077;28;20458;-88
2022/09/02 08:26:38;;;;;;;9.90;9.00;;;34.90;41.10;;;;;;4973259;28;20682;-87
2022/09/02 08:29:06;;;;;;;8.00;7.53;;;32.60;42.20;;;;;;4965131;28;20206;-86
2022/09/02 08:31:32;;;;;;;8.03;6.40;;;31.90;43.00;;;;;;4958181;28;20267;-87
2022/09/02 08:33:59;;;;;;;6.00;5.50;;;32.60;44.00;;;;;;4968056;28;20450;-88
2022/09/02 08:36:24;;;;;;;5.07;4.77;;;30.70;45.40;;;;;;4958244;28;20804;-87
2022/09/02 08:38:50;;;;;;;5.53;5.07;;;30.50;46.00;;;;;;4954612;28;20460;-88
2022/09/02 08:41:27;;;;;;;6.20;4.70;;;30.20;46.40;;;;;;4967034;28;20278;-87
2022/09/02 08:43:55;;;;;;;8.47;4.93;;;31.00;46.70;;;;;;4950084;28;20214;-88
2022/09/02 08:46:25;;;;;;;7.10;5.37;;;32.00;44.60;;;;;;4973589;28;20469;-87
2022/09/02 08:49:07;;;;;;;5.20;4.80;;;32.40;44.30;;;;;;4970943;28;20527;-88
2022/09/02 08:51:49;;;;;;;7.13;4.40;;;30.60;43.90;;;;;;4961958;28;20554;-87
2022/09/02 08:54:23;;;;;;;4.00;3.80;;;29.90;44.20;;;;;;4975330;28;20468;-88
2022/09/02 08:56:50;;;;;;;4.30;3.53;;;29.70;45.90;;;;;;4969955;28;20445;-87
2022/09/02 08:59:21;;;;;;;5.73;3.83;;;29.90;45.80;;;;;;4952321;28;20465;-87
2022/09/02 09:02:09;;;;;;;4.53;3.80;;;29.60;45.40;;;;;;4958813;28;20459;-87
2022/09/02 09:05:04;;;;;;;4.30;3.07;;;28.50;46.30;;;;;;4977320;28;20447;-86
2022/09/02 09:07:48;;;;;;;3.10;2.80;;;27.60;48.40;;;;;;4967130;28;20474;-87
2022/09/02 09:10:30;;;;;;;2.80;2.60;;;27.40;48.70;;;;;;4977602;28;20437;-87
2022/09/02 09:13:33;;;;;;;3.57;2.87;;;27.30;49.00;;;;;;4971230;28;20463;-86
2022/09/02 09:16:27;;;;;;;3.77;2.87;;;27.30;48.80;;;;;;4977639;28;20428;-87
2022/09/02 09:19:12;;;;;;;3.13;2.70;;;27.80;49.00;;;;;;4972913;28;20490;-87
2022/09/02 09:21:39;;;;;;;4.50;3.03;;;27.80;49.40;;;;;;4971482;28;20543;-87
2022/09/02 09:24:43;;;;;;;4.50;3.40;;;28.00;49.00;;;;;;4968663;28;20597;-86
2022/09/02 09:27:13;;;;;;;3.97;3.60;;;27.20;48.90;;;;;;4961609;28;20454;-87
2022/09/02 09:29:39;;;;;;;3.80;2.70;;;;;;;;;;4976511;28;20445;-88
2022/09/02 09:32:29;;;;;;;3.27;3.07;;;27.40;48.10;;;;;;4967775;28;20486;-87
2022/09/02 09:35:00;;;;;;;3.50;2.63;;;27.90;46.30;;;;;;4976217;28;20753;-87
2022/09/02 09:37:39;;;;;;;7.00;2.63;;;27.50;45.80;;;;;;4978011;28;20467;-86
2022/09/02 09:40:20;;;;;;;3.30;2.43;;;27.50;45.90;;;;;;4995159;23;20595;-89
2022/09/02 09:42:48;;;;;;;3.03;2.70;;;27.10;46.00;;;;;;5008167;28;20559;-87
2022/09/02 09:45:20;;;;;;;4.37;2.30;;;26.80;46.30;;;;;;5006723;28;20532;-90
2022/09/02 09:48:11;;;;;;;4.20;2.90;;;26.80;46.60;;;;;;5009168;28;20430;-86
2022/09/02 09:50:36;;;;;;;3.53;2.70;;;26.80;47.20;;;;;;5007139;28;20461;-89
2022/09/02 09:53:21;;;;;;;6.70;2.40;;;28.40;47.20;;;;;;4990441;28;20446;-87
2022/09/02 09:56:05;;;;;;;3.17;2.50;;;27.20;45.70;;;;;;5005401;28;20180;-85
2022/09/02 09:58:39;;;;;;;3.73;2.70;;;28.50;43.80;;;;;;5005502;28;20429;-87
2022/09/02 10:01:12;;;;;;;3.27;2.40;;;28.50;44.30;;;;;;4990550;28;20458;-88
2022/09/02 10:03:54;;;;;;;2.67;2.47;;;28.20;43.00;;;;;;5008059;28;20470;-89
2022/09/02 10:06:29;;;;;;;11.80;2.93;;;27.90;44.30;;;;;;5007577;28;20432;-86
2022/09/02 10:09:06;;;;;;;4.13;3.00;;;27.70;44.30;;;;;;5008643;28;20457;-91
2022/09/02 10:11:34;;;;;;;2.70;2.50;;;27.70;44.70;;;;;;5008506;28;20444;-90
2022/09/02 10:14:09;;;;;;;2.93;2.73;;;27.30;43.60;;;;;;4988596;28;20434;-89
2022/09/02 10:16:38;;;;;;;2.70;2.50;;;26.60;44.60;;;;;;5008284;28;20969;-88
2022/09/02 10:19:18;;;;;;;3.13;2.83;;;25.50;46.30;;;;;;5006849;28;20437;-85
2022/09/02 10:21:56;;;;;;;5.30;2.13;;;24.60;47.80;;;;;;4980406;28;20792;-86
2022/09/02 10:24:50;;;;;;;2.40;2.20;;;24.10;48.20;;;;;;5003107;28;20445;-86
2022/09/02 10:27:23;;;;;;;4.00;2.40;;;23.90;49.10;;;;;;4981664;28;20437;-88
2022/09/02 10:30:04;;;;;;;2.40;2.20;;;23.90;49.60;;;;;;4982334;28;20457;-88
2022/09/02 10:33:01;;;;;;;3.47;2.33;;;23.90;49.50;;;;;;4987461;28;20468;-88
2022/09/02 10:35:35;;;;;;;4.07;2.13;;;23.70;50.20;;;;;;4989445;28;21071;-89
2022/09/02 10:38:28;;;;;;;1.97;1.80;;;23.70;48.90;;;;;;5006896;28;20432;-87
2022/09/02 10:41:41;;;;;;;3.27;2.23;;;23.60;49.00;;;;;;4989635;28;20456;-87
2022/09/02 10:44:29;;;;;;;2.20;2.00;;;23.70;49.80;;;;;;4986010;28;21031;-88
2022/09/02 10:47:03;;;;;;;3.70;2.10;;;23.70;49.30;;;;;;4996709;28;20447;-86
2022/09/02 10:49:34;;;;;;;2.30;2.13;;;23.90;48.60;;;;;;5026631;28;20456;-87
2022/09/02 10:52:28;;;;;;;2.40;2.20;;;24.00;47.70;;;;;;5010013;28;20438;-89
2022/09/02 10:55:27;;;;;;;2.37;2.17;;;23.80;47.10;;;;;;5009598;28;20439;-87
2022/09/02 10:57:58;;;;;;;2.60;2.13;;;23.90;47.80;;;;;;5010865;28;20437;-89
2022/09/02 11:00:26;;;;;;;3.30;2.27;;;24.00;48.50;;;;;;5003825;28;20471;-86
2022/09/02 11:03:22;;;;;;;2.97;2.37;;;24.10;48.50;;;;;;4988618;28;20466;-88
2022/09/02 11:05:48;;;;;;;3.20;2.17;;;24.00;48.10;;;;;;4993984;28;20470;-87
2022/09/02 11:08:25;;;;;;;4.43;2.43;;;23.80;48.40;;;;;;5012253;28;20514;-88
2022/09/02 11:11:06;;;;;;;2.13;1.90;;;23.90;48.90;;;;;;5012289;28;20210;-89
2022/09/02 11:13:51;;;;;;;5.13;2.10;;;24.10;47.50;;;;;;4994088;28;20456;-87
2022/09/02 11:16:40;;;;;;;2.87;2.07;;;24.00;47.60;;;;;;4990451;28;20433;-86
2022/09/02 11:19:18;;;;;;;6.93;2.17;;;23.90;48.70;;;;;;5008520;28;20457;-89
2022/09/02 11:21:56;;;;;;;2.27;2.17;;;24.00;47.40;;;;;;5010834;28;20448;-88
2022/09/02 11:24:35;;;;;;;1.93;1.73;;;23.90;46.90;;;;;;5012553;28;20444;-88
2022/09/02 11:27:33;;;;;;;2.10;1.60;;;23.80;47.70;;;;;;4989588;28;20535;-87
2022/09/02 11:30:28;;;;;;;2.73;2.40;;;23.90;47.60;;;;;;5017244;28;20445;-85
2022/09/02 11:33:16;;;;;;;4.33;2.00;;;24.20;46.90;;;;;;5027908;28;20440;-86
2022/09/02 11:35:43;;;;;;;2.30;1.90;;;24.30;46.30;;;;;;4996641;28;20433;-87
2022/09/02 11:38:49;;;;;;;3.07;2.00;;;24.30;46.00;;;;;;4986004;28;20520;-87
2022/09/02 11:41:18;;;;;;;2.33;2.03;;;24.30;46.10;;;;;;5006429;28;20544;-88
2022/09/02 11:43:54;;;;;;;2.73;2.50;;;24.40;46.20;;;;;;5011500;28;21175;-89
2022/09/02 11:46:25;;;;;;;3.47;2.50;;;24.50;46.00;;;;;;4991376;28;20442;-88
2022/09/02 11:48:51;;;;;;;3.07;2.10;;;24.40;45.80;;;;;;5010194;28;20461;-87
2022/09/02 11:51:41;;;;;;;3.37;1.80;;;24.40;46.50;;;;;;4994754;28;20425;-88
2022/09/02 11:54:12;;;;;;;5.13;2.13;;;24.50;45.90;;;;;;4994943;28;20179;-86
2022/09/02 11:56:49;;;;;;;1.90;1.80;;;24.60;45.80;;;;;;5013064;28;20544;-88
2022/09/02 11:59:39;;;;;;;3.40;2.00;;;24.70;46.30;;;;;;5012415;28;21016;-87
2022/09/02 12:02:05;;;;;;;1.90;1.80;;;25.00;46.00;;;;;;5009541;28;20437;-88
2022/09/02 12:04:30;;;;;;;2.03;1.93;;;;;;;;;;4985504;28;20441;-85
2022/09/02 12:07:05;;;;;;;3.50;2.20;;;25.00;43.80;;;;;;4987175;28;20713;-88
2022/09/02 12:09:48;;;;;;;1.90;1.80;;;24.60;44.90;;;;;;4984243;28;20944;-85
2022/09/02 12:12:40;;;;;;;10.70;2.10;;;24.40;45.60;;;;;;4986858;28;20444;-86
2022/09/02 12:15:06;;;;;;;2.20;1.90;;;24.60;45.40;;;;;;5004442;28;20447;-84
2022/09/02 12:17:52;;;;;;;1.93;1.73;;;24.70;45.80;;;;;;4990796;28;20568;-85
2022/09/02 12:20:37;;;;;;;2.07;1.87;;;24.90;44.60;;;;;;4984172;28;20475;-88
2022/09/02 12:23:04;;;;;;;2.90;1.97;;;25.00;45.50;;;;;;4996846;28;20892;-89
2022/09/02 12:25:32;;;;;;;2.50;2.30;;;25.10;45.10;;;;;;4997520;28;20452;-84
2022/09/02 12:28:29;;;;;;;1.93;1.73;;;25.00;43.90;;;;;;5008161;28;20448;-85
2022/09/02 12:30:54;;;;;;;3.70;1.90;;;24.80;44.00;;;;;;4997446;28;20437;-85
2022/09/02 12:33:38;;;;;;;5.70;2.23;;;25.10;43.40;;;;;;5008518;28;20433;-86
2022/09/02 12:36:08;;;;;;;2.23;2.13;;;25.20;43.90;;;;;;5006187;28;20260;-89
2022/09/02 12:38:34;;;;;;;2.20;2.00;;;25.40;43.90;;;;;;4992444;28;20478;-88
2022/09/02 12:41:07;;;;;;;2.90;2.13;;;25.40;44.50;;;;;;5008038;28;21584;-84
2022/09/02 12:43:43;;;;;;;5.00;2.00;;;26.60;45.20;;;;;;4989233;28;20209;-86
2022/09/02 12:46:33;;;;;;;2.40;2.30;;;25.60;44.50;;;;;;4987603;28;20456;-88
2022/09/02 12:49:22;;;;;;;4.70;2.47;;;25.60;44.10;;;;;;5005806;28;20486;-88
2022/09/02 12:51:55;;;;;;;2.43;2.20;;;25.60;43.40;;;;;;4975718;28;20438;-89
2022/09/02 12:54:38;;;;;;;2.27;2.17;;;25.60;43.60;;;;;;5005932;28;20456;-86
2022/09/02 12:57:05;;;;;;;4.27;2.23;;;25.50;44.60;;;;;;5008608;28;20468;-86
2022/09/02 12:59:34;;;;;;;2.13;2.03;;;25.50;45.10;;;;;;5005417;28;20469;-88
2022/09/02 13:02:15;;;;;;;4.23;2.33;;;25.60;44.80;;;;;;4981310;28;20441;-85
2022/09/02 13:05:05;;;;;;;2.60;2.40;;;25.80;43.30;;;;;;5007858;28;20984;-90
2022/09/02 13:07:51;;;;;;;2.33;2.13;;;25.50;43.70;;;;;;5003744;28;20433;-88
2022/09/02 13:10:39;;;;;;;4.30;1.77;;;25.10;44.00;;;;;;4979417;28;20461;-88
2022/09/02 13:13:26;;;;;;;1.90;1.80;;;25.10;44.00;;;;;;4982021;28;20441;-87
2022/09/02 13:16:25;;;;;;;2.70;2.50;;;25.30;43.60;;;;;;5001338;28;20561;-87
2022/09/02 13:19:06;;;;;;;2.20;2.10;;;25.50;43.50;;;;;;5003929;28;21207;-86
2022/09/02 13:22:01;;;;;;;5.63;2.07;;;25.60;43.10;;;;;;4984149;28;20838;-88
2022/09/02 13:24:47;;;;;;;6.37;2.57;;;25.60;43.80;;;;;;4992091;28;20476;-89